Pulcifer, Wisconsin
Current Conditions -  °F | °C
As of 7:15 AM on Saturday 25 Oct 2014 (Local Time) from KEZS Reporting Station
Clear Clear  
Wind Chill: 52°   Ceiling: Unl
Heat Index: 52°   Visibility: 10mi
Dew Point: 48°   Wind: 3mph
Humidity: 85%   Direction: 250°WSW
Pressure: 29.84"   Gusts: NA
Location:  44.9109°N, 88.3543°W
Report Text: KEZS 251215Z AUTO 25003KT 10SM CLR 11/09 A2984 RMK AO2 T01120088
Loading
Personal Weather Stations






























Interactive Weather Map
Tropical Storm Tracking
New forecast layout! Learn more

10-Day Weather Forecast

Advertisements
Track Severe Weather on mobile